Time;durP1;ratioP1;P1;durP2;ratioP2;P2;SDS_P1;SDS_P2;PMS_P1;PMS_P2;Temp;Humidity;BMP_temperature;BMP_pressure;BME280_temperature;BME280_humidity;BME280_pressure;Samples;Min_cycle;Max_cycle;Signal;HPM_P1;HPM_P2
2021/05/14 00:00:02;;;;;;;;;16.00;13.80;;;;;19.85;54.08;97189.53;6235512;28;125143;-61
2021/05/14 00:03:11;;;;;;;;;15.00;14.00;;;;;19.82;54.22;97190.19;6235220;28;124764;-61
2021/05/14 00:06:14;;;;;;;;;14.00;12.40;;;;;19.81;54.61;97181.19;6233624;28;125151;-61
2021/05/14 00:09:18;;;;;;;;;16.60;14.00;;;;;19.70;54.34;97177.16;6233534;28;125749;-61
2021/05/14 00:12:21;;;;;;;;;13.80;12.40;;;;;19.96;54.74;97196.28;6220220;28;125877;-61
2021/05/14 00:15:24;;;;;;;;;13.40;13.00;;;;;19.92;54.07;97197.25;6223405;28;127331;-61
2021/05/14 00:18:28;;;;;;;;;14.00;14.00;;;;;19.93;54.38;97193.41;6232604;28;124968;-61
2021/05/14 00:21:32;;;;;;;;;14.00;13.00;;;;;19.85;54.46;97187.59;6215431;28;123981;-61
2021/05/14 00:24:35;;;;;;;;;13.40;12.00;;;;;19.87;54.75;97185.38;6216603;28;125082;-60
2021/05/14 00:27:38;;;;;;;;;14.00;13.40;;;;;19.90;54.76;97194.84;6224240;28;126721;-61
2021/05/14 00:30:41;;;;;;;;;12.40;11.00;;;;;19.85;54.54;97193.06;6217005;28;125150;-61
2021/05/14 00:33:45;;;;;;;;;15.60;13.20;;;;;19.85;55.01;97192.28;6217031;28;126745;-61
2021/05/14 00:36:48;;;;;;;;;15.00;13.40;;;;;19.73;54.77;97175.72;6216892;28;126316;-61
2021/05/14 00:39:51;;;;;;;;;13.00;12.00;;;;;19.76;55.28;97188.75;6216341;28;126052;-61
2021/05/14 00:42:53;;;;;;;;;12.60;12.60;;;;;19.79;55.21;97186.16;6233503;28;126340;-61
2021/05/14 00:45:56;;;;;;;;;15.00;13.00;;;;;19.79;55.23;97188.88;6225855;28;125244;-61
2021/05/14 00:49:00;;;;;;;;;14.00;14.00;;;;;19.84;55.16;97190.69;6216282;27;123275;-61
2021/05/14 00:52:04;;;;;;;;;16.75;14.00;;;;;19.73;55.70;97192.13;6239283;27;124961;-61
2021/05/14 00:55:08;;;;;;;;;14.60;14.00;;;;;19.81;55.59;97183.91;6239717;27;124025;-61
2021/05/14 00:58:11;;;;;;;;;16.40;15.40;;;;;19.75;55.65;97181.66;6258841;27;126061;-61
2021/05/14 01:01:14;;;;;;;;;13.00;12.00;;;;;19.72;55.51;97185.03;6258975;27;125066;-61
2021/05/14 01:04:18;;;;;;;;;12.67;12.00;;;;;19.78;55.40;97186.50;6259111;27;126565;-61
2021/05/14 01:07:20;;;;;;;;;14.60;12.80;;;;;19.57;56.01;97182.78;6257062;27;124395;-61
2021/05/14 01:10:23;;;;;;;;;12.60;12.00;;;;;19.55;56.25;97180.38;6252364;27;124318;-61
2021/05/14 01:13:26;;;;;;;;;13.00;11.60;;;;;19.55;56.32;97188.56;6257744;27;124837;-61
2021/05/14 01:16:29;;;;;;;;;12.80;11.80;;;;;19.57;55.82;97180.88;6258374;27;126950;-61
2021/05/14 01:19:33;;;;;;;;;12.80;11.80;;;;;19.58;56.07;97181.66;6256633;27;125631;-61
2021/05/14 01:22:36;;;;;;;;;13.00;12.00;;;;;19.55;56.06;97177.63;6241303;27;127002;-61
2021/05/14 01:25:39;;;;;;;;;13.00;12.00;;;;;19.57;55.93;97185.53;6257302;27;126705;-61
2021/05/14 01:28:42;;;;;;;;;14.60;14.00;;;;;19.54;56.30;97183.44;6260334;27;126232;-61
2021/05/14 01:31:47;;;;;;;;;13.25;11.50;;;;;19.52;56.15;97189.22;6262781;27;124812;-60
2021/05/14 01:34:50;;;;;;;;;13.00;13.00;;;;;19.54;56.23;97175.25;6262597;27;125163;-61
2021/05/14 01:37:54;;;;;;;;;13.60;12.60;;;;;19.49;56.31;97178.94;6263109;27;126626;-61
2021/05/14 01:40:56;;;;;;;;;12.00;11.20;;;;;19.46;56.62;97174.91;6242267;27;124391;-61
2021/05/14 01:43:59;;;;;;;;;13.80;13.00;;;;;19.50;56.52;97177.00;6232526;27;125041;-61
2021/05/14 01:47:02;;;;;;;;;13.00;12.20;;;;;19.42;56.82;97178.56;6260368;27;124886;-61
2021/05/14 01:50:06;;;;;;;;;12.00;11.00;;;;;19.36;56.99;97175.19;6260087;27;125178;-61
2021/05/14 01:53:10;;;;;;;;;14.40;14.00;;;;;19.42;56.97;97178.56;6232021;27;125326;-61
2021/05/14 01:56:12;;;;;;;;;13.60;12.00;;;;;19.43;57.06;97175.53;6261370;27;123979;-61
2021/05/14 01:59:15;;;;;;;;;12.00;11.40;;;;;19.17;57.19;97147.34;6261196;27;126486;-61
2021/05/14 02:02:19;;;;;;;;;16.00;15.00;;;;;19.44;56.84;97181.81;6259636;27;124482;-61
2021/05/14 02:05:22;;;;;;;;;13.00;11.00;;;;;19.51;56.79;97187.59;6261265;27;123987;-61
2021/05/14 02:08:26;;;;;;;;;14.40;12.60;;;;;19.49;56.71;97189.88;6260044;27;124471;-61
2021/05/14 02:11:29;;;;;;;;;14.75;13.00;;;;;19.60;56.79;97187.59;6244883;27;125969;-61
2021/05/14 02:14:31;;;;;;;;;14.00;13.00;;;;;19.71;56.45;97194.38;6233730;27;125155;-61
2021/05/14 02:17:34;;;;;;;;;14.00;13.50;;;;;19.68;56.24;97184.91;6262256;27;126106;-61
2021/05/14 02:20:37;;;;;;;;;14.50;13.50;;;;;19.69;56.77;97186.50;6259106;27;126350;-60
2021/05/14 02:23:41;;;;;;;;;15.00;14.00;;;;;19.61;56.43;97195.50;6258915;27;124984;-61
2021/05/14 02:26:44;;;;;;;;;15.75;13.00;;;;;19.54;56.64;97189.72;6244085;27;126340;-61
2021/05/14 02:29:47;;;;;;;;;15.25;14.00;;;;;19.51;57.08;97195.00;6260316;27;126298;-61
2021/05/14 02:32:50;;;;;;;;;16.80;14.40;;;;;19.60;56.91;97198.53;6243511;27;125106;-61
2021/05/14 02:35:52;;;;;;;;;15.67;13.67;;;;;19.50;57.06;97199.66;6259705;27;124987;-61
2021/05/14 02:38:56;;;;;;;;;13.25;12.75;;;;;19.55;56.88;97202.22;6242757;27;123784;-61
2021/05/14 02:41:59;;;;;;;;;13.75;13.00;;;;;19.56;56.83;97203.03;6227179;28;126222;-61
2021/05/14 02:45:03;;;;;;;;;15.00;14.00;;;;;19.35;57.05;97178.25;6256973;27;126179;-61
2021/05/14 02:48:06;;;;;;;;;12.00;12.00;;;;;19.48;57.22;97198.38;6259321;27;126094;-61
2021/05/14 02:51:09;;;;;;;;;17.20;15.00;;;;;19.36;57.59;97198.97;6251840;27;125955;-62
2021/05/14 02:54:13;;;;;;;;;15.00;13.75;;;;;19.30;57.86;97192.06;6259772;27;126190;-62
2021/05/14 02:57:16;;;;;;;;;15.25;14.00;;;;;19.31;57.59;97197.19;6261232;27;125058;-61
2021/05/14 03:00:21;;;;;;;;;15.00;13.25;;;;;19.24;57.93;97198.81;6226228;27;123254;-61
2021/05/14 03:03:24;;;;;;;;;14.20;13.80;;;;;19.21;58.08;97192.03;6233932;27;124805;-61
2021/05/14 03:06:27;;;;;;;;;16.00;14.00;;;;;19.13;58.35;97198.28;6259488;27;126165;-61
2021/05/14 03:09:30;;;;;;;;;17.00;16.00;;;;;19.12;58.53;97188.47;6259794;27;126548;-62
2021/05/14 03:12:33;;;;;;;;;18.40;15.40;;;;;19.02;58.62;97188.78;6260143;27;126120;-61
2021/05/14 03:15:36;;;;;;;;;13.80;12.40;;;;;18.95;58.80;97191.97;6242101;27;124336;-62
2021/05/14 03:18:38;;;;;;;;;15.20;13.80;;;;;18.97;59.04;97197.09;6258445;27;125087;-62
2021/05/14 03:21:41;;;;;;;;;14.00;14.00;;;;;18.82;58.86;97176.50;6246387;27;126735;-61
2021/05/14 03:24:45;;;;;;;;;15.20;14.00;;;;;19.03;58.69;97202.13;6260644;27;123903;-61
2021/05/14 03:27:47;;;;;;;;;16.00;14.50;;;;;19.13;58.45;97209.22;6242419;27;125464;-61
2021/05/14 03:30:51;;;;;;;;;15.40;15.20;;;;;19.06;58.57;97211.59;6260546;27;124870;-61
2021/05/14 03:33:54;;;;;;;;;16.50;15.00;;;;;19.22;58.16;97206.50;6261121;27;124748;-62
2021/05/14 03:36:56;;;;;;;;;17.00;16.00;;;;;19.14;58.59;97215.47;6241761;27;126158;-62
2021/05/14 03:40:04;;;;;;;;;17.00;17.00;;;;;19.08;58.45;97214.81;6242159;27;125506;-62
2021/05/14 03:43:07;;;;;;;;;19.00;17.00;;;;;19.19;58.25;97218.88;6258027;27;126567;-63
2021/05/14 03:46:10;;;;;;;;;19.60;18.00;;;;;19.27;57.79;97226.28;6260165;27;126167;-61
2021/05/14 03:49:13;;;;;;;;;19.75;18.50;;;;;19.28;58.05;97232.56;6257491;27;125096;-61
2021/05/14 03:52:16;;;;;;;;;21.00;18.40;;;;;19.30;57.77;97239.28;6258729;27;125074;-61
2021/05/14 03:55:20;;;;;;;;;22.60;20.20;;;;;19.44;57.49;97234.56;6237046;27;125902;-61
2021/05/14 03:58:22;;;;;;;;;25.40;23.00;;;;;19.44;57.25;97242.75;6250723;27;125794;-62
2021/05/14 04:01:25;;;;;;;;;23.00;20.00;;;;;19.48;57.06;97234.72;6241141;27;126874;-61
2021/05/14 04:04:28;;;;;;;;;29.40;24.00;;;;;19.38;56.87;97227.59;6254585;27;123972;-62
2021/05/14 04:07:30;;;;;;;;;27.00;24.60;;;;;19.40;56.82;97228.06;6226160;27;126379;-62
2021/05/14 04:10:48;;;;;;;;;25.00;23.00;;;;;19.47;57.09;97246.75;6258444;27;126679;-62
2021/05/14 04:17:11;;;;;;;;;27.50;26.00;;;;;19.38;57.28;97246.72;6258275;27;126132;-62
2021/05/14 04:20:14;;;;;;;;;28.50;27.25;;;;;19.37;57.36;97256.03;6242720;27;124600;-63
2021/05/14 04:23:17;;;;;;;;;27.00;25.00;;;;;19.34;57.27;97253.97;6255950;27;126191;-62
2021/05/14 04:26:20;;;;;;;;;33.80;27.60;;;;;19.27;57.32;97261.00;6251285;27;126099;-62
2021/05/14 04:29:24;;;;;;;;;31.00;29.20;;;;;19.25;57.59;97257.78;6259889;27;126392;-62
2021/05/14 04:32:27;;;;;;;;;33.00;29.00;;;;;19.33;57.31;97260.53;6255498;27;126096;-62
2021/05/14 04:35:29;;;;;;;;;34.20;30.00;;;;;19.44;57.15;97261.88;6225377;27;124922;-62
2021/05/14 04:38:32;;;;;;;;;32.00;29.00;;;;;19.38;57.16;97256.84;6241160;27;126782;-62
2021/05/14 04:41:36;;;;;;;;;32.40;29.00;;;;;19.44;57.07;97266.53;6259415;27;126153;-62
2021/05/14 04:44:39;;;;;;;;;32.40;29.40;;;;;19.48;56.62;97263.97;6257880;27;125324;-62
2021/05/14 04:47:41;;;;;;;;;35.50;28.00;;;;;19.48;56.74;97253.84;6251677;27;126068;-63
2021/05/14 04:50:44;;;;;;;;;36.00;30.00;;;;;19.40;56.81;97258.13;6239765;27;126226;-62
2021/05/14 04:53:48;;;;;;;;;32.00;29.00;;;;;19.43;56.44;97245.75;6249238;27;124811;-62
2021/05/14 04:56:51;;;;;;;;;34.25;27.75;;;;;19.57;56.62;97264.78;6248435;27;125576;-62
2021/05/14 04:59:54;;;;;;;;;32.00;29.40;;;;;19.56;56.40;97268.63;6240828;27;125262;-62
2021/05/14 05:02:58;;;;;;;;;31.00;27.00;;;;;19.50;56.64;97265.25;6240291;27;126272;-62
2021/05/14 05:06:02;;;;;;;;;32.80;29.20;;;;;19.54;56.23;97268.16;6262438;27;124755;-62
2021/05/14 05:09:05;;;;;;;;;31.60;27.60;;;;;19.46;56.67;97272.47;6256891;27;124745;-62
2021/05/14 05:12:09;;;;;;;;;33.60;30.00;;;;;19.55;56.35;97275.25;6245242;27;126960;-62
2021/05/14 05:15:14;;;;;;;;;33.00;30.00;;;;;19.57;55.99;97270.25;6265367;27;125642;-62
2021/05/14 05:18:17;;;;;;;;;32.20;29.80;;;;;19.53;56.20;97270.09;6263643;27;126068;-62
2021/05/14 05:21:19;;;;;;;;;32.20;28.60;;;;;19.64;55.96;97281.53;6259484;27;126389;-62
2021/05/14 05:24:22;;;;;;;;;31.00;27.00;;;;;19.60;55.91;97284.09;6258327;27;125205;-62
2021/05/14 05:27:26;;;;;;;;;34.20;30.00;;;;;19.52;55.92;97284.88;6243104;27;125680;-62
2021/05/14 05:30:28;;;;;;;;;34.00;30.00;;;;;19.68;56.00;97294.25;6253474;27;123674;-62
2021/05/14 05:33:31;;;;;;;;;34.40;30.00;;;;;19.66;55.88;97292.94;6242486;27;125241;-62
2021/05/14 05:36:34;;;;;;;;;30.80;28.00;;;;;19.64;55.87;97293.28;6258386;27;126630;-62
2021/05/14 05:39:37;;;;;;;;;35.00;30.00;;;;;19.60;55.96;97305.16;6260676;27;125343;-62
2021/05/14 05:42:40;;;;;;;;;31.40;30.00;;;;;19.53;56.37;97304.81;6248955;27;124927;-62
2021/05/14 05:45:44;;;;;;;;;31.75;29.75;;;;;19.56;56.20;97313.19;6258831;27;126274;-62
2021/05/14 05:48:48;;;;;;;;;31.80;29.60;;;;;19.46;56.07;97319.75;6241607;27;126770;-62
2021/05/14 05:51:53;;;;;;;;;31.20;28.60;;;;;19.49;56.33;97322.97;6242435;27;125944;-62
2021/05/14 05:54:56;;;;;;;;;33.80;30.80;;;;;19.56;56.19;97312.38;6252528;27;126150;-61
2021/05/14 05:58:05;;;;;;;;;37.40;32.00;;;;;19.57;55.93;97316.72;6227644;27;125089;-62
2021/05/14 06:01:08;;;;;;;;;32.00;28.25;;;;;19.59;55.98;97326.22;6251972;27;126309;-62
2021/05/14 06:04:11;;;;;;;;;33.80;29.80;;;;;19.69;55.64;97333.34;6260372;27;125057;-62
2021/05/14 06:07:14;;;;;;;;;33.40;30.00;;;;;19.63;55.51;97331.88;6232082;27;126489;-62
2021/05/14 06:10:17;;;;;;;;;34.20;29.60;;;;;19.53;55.72;97343.09;6259896;27;126206;-62
2021/05/14 06:13:20;;;;;;;;;29.80;27.00;;;;;19.63;55.56;97345.53;6251530;27;125868;-62
2021/05/14 06:16:23;;;;;;;;;32.00;30.00;;;;;19.70;55.75;97354.06;6251945;27;125983;-62
2021/05/14 06:19:29;;;;;;;;;31.40;28.40;;;;;19.66;55.43;97351.16;6260039;27;125123;-63
2021/05/14 06:22:31;;;;;;;;;27.60;27.00;;;;;19.69;55.62;97338.81;6241635;27;126079;-62
2021/05/14 06:25:34;;;;;;;;;37.00;30.25;;;;;19.79;55.41;97360.38;6260775;27;126313;-62
2021/05/14 06:28:38;;;;;;;;;30.50;27.50;;;;;19.75;55.33;97370.31;6261372;27;126274;-62
2021/05/14 06:31:41;;;;;;;;;33.00;29.40;;;;;19.78;55.06;97375.97;6246442;27;126931;-62
2021/05/14 06:34:45;;;;;;;;;30.00;26.20;;;;;19.86;54.94;97368.91;6259628;27;126851;-62
2021/05/14 06:37:48;;;;;;;;;26.50;24.50;;;;;19.81;55.19;97380.00;6254015;27;126258;-62
2021/05/14 06:40:50;;;;;;;;;27.75;26.00;;;;;19.93;54.78;97377.47;6230330;27;124950;-62
2021/05/14 06:43:56;;;;;;;;;28.00;24.50;;;;;20.07;54.47;97375.41;6260127;27;126841;-62
2021/05/14 06:46:59;;;;;;;;;27.00;24.60;;;;;19.88;54.27;97363.94;6239683;27;126117;-62
2021/05/14 06:50:04;;;;;;;;;29.20;28.60;;;;;20.09;54.27;97392.28;6249480;27;125920;-62
2021/05/14 06:53:08;;;;;;;;;26.50;24.25;;;;;20.07;54.18;97378.13;6250390;27;127297;-62
2021/05/14 06:56:11;;;;;;;;;27.33;25.00;;;;;20.15;53.98;97392.94;6256575;27;125311;-62
2021/05/14 06:59:14;;;;;;;;;28.60;26.40;;;;;20.16;54.27;97391.81;6259421;27;126090;-62
2021/05/14 07:02:17;;;;;;;;;29.40;26.00;;;;;20.18;53.83;97397.78;6258337;27;125754;-62
2021/05/14 07:05:20;;;;;;;;;27.20;23.60;;;;;20.06;54.03;97400.31;6255478;27;124108;-62
2021/05/14 07:08:23;;;;;;;;;31.00;27.00;;;;;20.14;53.71;97403.06;6251038;27;126419;-62
2021/05/14 07:11:25;;;;;;;;;24.00;23.00;;;;;20.04;53.89;97416.25;6224700;27;125483;-62
2021/05/14 07:14:29;;;;;;;;;29.00;27.00;;;;;20.10;54.02;97410.31;6256624;27;125038;-62
2021/05/14 07:17:32;;;;;;;;;26.80;25.80;;;;;20.11;54.01;97420.13;6257271;27;124808;-62
2021/05/14 07:20:36;;;;;;;;;26.60;23.00;;;;;20.06;54.23;97420.28;6239338;27;125716;-62
2021/05/14 07:23:41;;;;;;;;;25.00;24.00;;;;;20.06;54.45;97427.69;6250547;27;126358;-62
2021/05/14 07:26:43;;;;;;;;;29.00;24.80;;;;;20.07;54.55;97426.56;6240374;27;124366;-62
2021/05/14 07:29:47;;;;;;;;;31.00;27.25;;;;;19.97;54.44;97405.78;6243227;27;126242;-62
2021/05/14 07:32:50;;;;;;;;;28.00;25.60;;;;;20.14;54.12;97427.69;6253081;27;124786;-62
2021/05/14 07:35:54;;;;;;;;;28.00;24.00;;;;;20.07;54.73;97426.56;6258191;27;124228;-62
2021/05/14 07:38:57;;;;;;;;;29.40;26.80;;;;;20.07;54.62;97432.03;6231652;27;126151;-62
2021/05/14 07:41:59;;;;;;;;;28.20;25.00;;;;;20.02;54.90;97432.19;6249357;27;124493;-62
2021/05/14 07:45:04;;;;;;;;;28.00;25.00;;;;;20.08;54.70;97436.38;6257653;27;125908;-62
2021/05/14 07:48:19;;;;;;;;;27.00;24.60;;;;;20.13;54.69;97437.03;6258831;27;126699;-62
2021/05/14 07:51:22;;;;;;;;;28.00;24.00;;;;;20.18;54.75;97427.88;6258659;27;126056;-62
2021/05/14 07:54:25;;;;;;;;;29.00;26.00;;;;;20.25;54.88;97445.44;6240124;27;125061;-62
2021/05/14 07:57:28;;;;;;;;;27.00;26.00;;;;;20.24;54.77;97430.13;6257139;27;126362;-62
2021/05/14 08:00:32;;;;;;;;;28.60;26.60;;;;;20.26;54.63;97448.97;6257681;27;126227;-62
2021/05/14 08:03:34;;;;;;;;;28.40;26.00;;;;;20.24;54.31;97451.22;6241259;27;124639;-62
2021/05/14 08:06:37;;;;;;;;;30.00;28.00;;;;;20.30;54.30;97456.25;6234288;27;126255;-62
2021/05/14 08:09:42;;;;;;;;;30.00;26.00;;;;;20.31;53.93;97455.13;6235313;27;126441;-62
2021/05/14 08:12:44;;;;;;;;;30.00;27.50;;;;;20.29;53.76;97453.78;6236117;27;124680;-62
2021/05/14 08:15:56;;;;;;;;;28.75;26.75;;;;;20.40;53.85;97460.63;6252422;27;124655;-62
2021/05/14 08:19:04;;;;;;;;;29.60;27.60;;;;;20.41;54.04;97455.94;6249797;27;127023;-62
2021/05/14 08:22:07;;;;;;;;;31.80;27.60;;;;;20.45;53.51;97467.88;6240218;27;125122;-62
2021/05/14 08:25:11;;;;;;;;;31.75;28.00;;;;;20.39;53.77;97467.22;6239258;27;124668;-63
2021/05/14 08:28:14;;;;;;;;;31.60;26.40;;;;;20.43;53.36;97470.91;6224047;27;123651;-63
2021/05/14 08:31:18;;;;;;;;;29.00;27.00;;;;;20.53;53.85;97464.31;6256933;27;125291;-62
2021/05/14 08:34:21;;;;;;;;;29.20;27.20;;;;;20.55;53.43;97470.31;6256660;27;125869;-62
2021/05/14 08:37:24;;;;;;;;;30.25;25.25;;;;;20.51;53.54;97467.41;6256569;27;127005;-62
2021/05/14 08:40:26;;;;;;;;;33.40;30.00;;;;;20.53;53.60;97469.81;6262666;27;125885;-62
2021/05/14 08:43:29;;;;;;;;;34.60;29.60;;;;;20.55;53.50;97471.09;6237822;28;126779;-62
2021/05/14 08:46:36;;;;;;;;;31.20;28.20;;;;;20.44;53.32;97472.53;6253244;27;125114;-62
2021/05/14 08:49:48;;;;;;;;;33.00;27.33;;;;;20.43;53.67;97472.88;6242967;27;123812;-62
2021/05/14 08:52:51;;;;;;;;;29.50;26.25;;;;;20.42;53.91;97474.00;6244348;27;125010;-63
2021/05/14 08:55:56;;;;;;;;;30.80;28.80;;;;;20.41;54.16;97475.91;6224629;27;124841;-63
2021/05/14 08:58:58;;;;;;;;;34.80;30.00;;;;;20.46;53.96;97478.50;6258510;27;125910;-63
2021/05/14 09:02:02;;;;;;;;;35.00;30.25;;;;;20.45;53.95;97487.03;6261328;27;125975;-63
2021/05/14 09:05:21;;;;;;;;;32.25;29.75;;;;;20.56;53.76;97472.72;6244610;27;126026;-62
2021/05/14 09:08:28;;;;;;;;;30.00;27.40;;;;;20.72;53.88;97489.50;6244384;27;122897;-63
2021/05/14 09:11:36;;;;;;;;;33.00;30.00;;;;;20.78;53.74;97479.97;6245031;27;124923;-62
2021/05/14 09:14:42;;;;;;;;;32.40;28.00;;;;;20.85;53.31;97485.78;6243493;27;125041;-63
2021/05/14 09:18:01;;;;;;;;;34.00;30.50;;;;;20.98;52.54;97484.81;6245484;27;124791;-63
2021/05/14 09:21:05;;;;;;;;;32.25;27.25;;;;;21.17;52.56;97499.00;6250394;27;125791;-63
2021/05/14 09:24:08;;;;;;;;;37.40;32.00;;;;;21.23;52.25;97471.44;6249147;27;126087;-63
2021/05/14 09:27:19;;;;;;;;;35.60;30.00;;;;;21.58;52.40;97500.41;6240765;27;125020;-62
2021/05/14 09:30:22;;;;;;;;;35.40;31.40;;;;;21.71;50.83;97501.31;6260772;27;126309;-63
2021/05/14 09:33:29;;;;;;;;;36.00;30.00;;;;;21.81;50.27;97512.75;6261710;27;125133;-62
2021/05/14 09:36:33;;;;;;;;;33.00;30.00;;;;;21.90;50.95;97515.47;6259365;27;125909;-62
2021/05/14 09:39:36;;;;;;;;;34.00;30.00;;;;;21.90;49.98;97507.22;6250504;27;125923;-61
2021/05/14 09:42:39;;;;;;;;;31.00;28.75;;;;;21.97;49.87;97482.88;6252955;27;126246;-61
2021/05/14 09:45:41;;;;;;;;;33.60;30.00;;;;;22.25;49.59;97511.47;6255865;27;123996;-61
2021/05/14 09:48:56;;;;;;;;;33.00;30.00;;;;;22.50;49.55;97517.16;6240952;27;124547;-61
2021/05/14 09:52:02;;;;;;;;;31.60;30.00;;;;;22.65;47.80;97516.56;6259097;27;125063;-61
2021/05/14 09:55:22;;;;;;;;;31.00;27.00;;;;;22.69;47.26;97506.53;6259432;27;125497;-61
2021/05/14 09:58:30;;;;;;;;;30.40;28.40;;;;;22.66;46.42;97516.25;6260211;27;126641;-61
2021/05/14 10:01:33;;;;;;;;;28.60;27.00;;;;;22.97;45.99;97518.63;6255547;27;125074;-60
2021/05/14 10:04:39;;;;;;;;;33.25;29.25;;;;;23.29;46.01;97520.63;6237806;27;125142;-61
2021/05/14 10:07:42;;;;;;;;;33.25;29.50;;;;;23.60;45.29;97520.19;6261940;27;126140;-61
2021/05/14 10:10:45;;;;;;;;;33.50;30.00;;;;;23.64;45.56;97528.59;6240876;27;125282;-61
2021/05/14 10:13:51;;;;;;;;;31.40;28.00;;;;;23.63;45.11;97529.72;6263461;27;126082;-61
2021/05/14 10:16:54;;;;;;;;;32.60;29.40;;;;;23.56;44.64;97524.75;6257974;27;125972;-61
2021/05/14 10:20:00;;;;;;;;;32.60;29.00;;;;;23.65;44.49;97514.47;6262554;27;125013;-61
2021/05/14 10:23:04;;;;;;;;;33.40;30.00;;;;;23.84;44.64;97527.72;6258742;27;126348;-63
2021/05/14 10:26:09;;;;;;;;;30.00;28.00;;;;;24.00;44.14;97519.59;6225676;27;125200;-62
2021/05/14 10:29:13;;;;;;;;;36.25;30.00;;;;;24.05;43.43;97517.41;6261076;27;125928;-60
2021/05/14 10:32:37;;;;;;;;;32.00;28.00;;;;;24.10;43.43;97510.88;6256448;27;125854;-61
2021/05/14 10:35:41;;;;;;;;;36.75;28.50;;;;;24.25;43.37;97517.69;6248048;27;124131;-60
2021/05/14 10:38:43;;;;;;;;;32.20;29.00;;;;;24.27;43.08;97513.47;6259642;27;124773;-61
2021/05/14 10:41:51;;;;;;;;;29.20;26.20;;;;;24.03;42.40;97518.91;6256484;27;126280;-60
2021/05/14 10:44:54;;;;;;;;;32.00;29.40;;;;;24.09;42.96;97517.56;6257434;27;126432;-60
2021/05/14 10:47:57;;;;;;;;;32.60;29.00;;;;;24.06;42.62;97519.03;6259430;27;126562;-60
2021/05/14 10:51:02;;;;;;;;;31.60;29.00;;;;;24.12;42.97;97520.44;6254932;27;125207;-62
2021/05/14 10:54:05;;;;;;;;;33.20;29.80;;;;;24.07;41.73;97526.16;6260212;27;124090;-61
2021/05/14 10:57:08;;;;;;;;;28.40;28.00;;;;;24.12;41.98;97523.19;6255772;27;126226;-61
2021/05/14 11:00:29;;;;;;;;;31.80;28.80;;;;;24.30;41.69;97529.28;6230627;27;124745;-61
2021/05/14 11:03:33;;;;;;;;;34.00;28.00;;;;;24.37;41.67;97518.50;6225773;27;125805;-61
2021/05/14 11:06:44;;;;;;;;;30.00;28.00;;;;;24.43;41.42;97528.16;6248206;27;125276;-61
2021/05/14 11:10:06;;;;;;;;;28.20;23.60;;;;;24.42;40.97;97532.06;6239154;27;124471;-61
2021/05/14 11:13:35;;;;;;;;;30.20;26.00;;;;;24.53;40.71;97529.66;6254941;27;124766;-61
2021/05/14 11:16:40;;;;;;;;;26.40;25.40;;;;;24.68;40.87;97528.91;6237960;27;123504;-60
2021/05/14 11:19:47;;;;;;;;;26.75;24.50;;;;;24.59;41.06;97536.50;6259766;27;126002;-60
2021/05/14 11:22:51;;;;;;;;;24.40;22.40;;;;;24.66;40.36;97539.50;6234783;27;126657;-61
2021/05/14 11:25:54;;;;;;;;;28.25;24.00;;;;;24.68;40.98;97553.72;6259172;27;126368;-61
2021/05/14 11:28:57;;;;;;;;;25.00;23.00;;;;;24.59;41.00;97547.53;6255352;27;126616;-61
2021/05/14 11:32:18;;;;;;;;;24.40;22.00;;;;;24.63;41.28;97553.19;6258741;27;127151;-61
2021/05/14 11:35:22;;;;;;;;;22.00;22.00;;;;;24.71;40.46;97543.97;6258468;27;126395;-61
2021/05/14 11:38:26;;;;;;;;;23.60;21.60;;;;;24.58;41.14;97551.47;6241179;27;124819;-61
2021/05/14 11:41:30;;;;;;;;;22.00;20.40;;;;;24.64;41.92;97546.50;6258716;27;126005;-61
2021/05/14 11:44:33;;;;;;;;;23.00;21.00;;;;;24.50;41.10;97560.63;6255849;27;124863;-61
2021/05/14 11:47:36;;;;;;;;;22.40;20.00;;;;;24.44;40.28;97553.72;6244230;27;126532;-61
2021/05/14 11:50:41;;;;;;;;;21.40;20.60;;;;;24.50;40.20;97558.69;6258974;27;128120;-61
2021/05/14 11:53:46;;;;;;;;;19.60;17.00;;;;;24.41;40.20;97551.69;6258832;27;125402;-62
2021/05/14 11:56:49;;;;;;;;;18.80;17.80;;;;;24.25;40.67;97554.31;6257180;27;124836;-61
2021/05/14 11:59:52;;;;;;;;;19.80;17.20;;;;;24.37;41.04;97556.28;6256876;27;126433;-61
2021/05/14 12:02:56;;;;;;;;;22.25;19.00;;;;;24.21;40.41;97547.88;6235296;27;123957;-61
2021/05/14 12:06:09;;;;;;;;;19.80;18.00;;;;;23.97;41.55;97558.81;6258339;27;126476;-61
2021/05/14 12:09:13;;;;;;;;;20.40;19.40;;;;;24.07;41.75;97567.44;6248870;27;126687;-62
2021/05/14 12:12:19;;;;;;;;;19.40;17.00;;;;;24.11;41.97;97575.81;6258714;27;124370;-61
2021/05/14 12:15:24;;;;;;;;;19.00;18.00;;;;;24.08;41.61;97571.81;6257719;27;124850;-62
2021/05/14 12:18:28;;;;;;;;;19.60;17.60;;;;;24.06;41.40;97565.03;6258319;27;126304;-62
2021/05/14 12:21:35;;;;;;;;;15.80;14.20;;;;;24.04;41.39;97565.34;6244385;27;126304;-62
2021/05/14 12:24:40;;;;;;;;;15.50;15.00;;;;;24.19;41.35;97591.47;6257928;27;125059;-63
2021/05/14 12:27:44;;;;;;;;;15.00;14.60;;;;;24.31;41.84;97585.97;6258741;27;125888;-61
2021/05/14 12:30:47;;;;;;;;;13.20;12.20;;;;;24.59;41.39;97600.69;6241679;27;125609;-61
2021/05/14 12:33:52;;;;;;;;;14.00;12.50;;;;;24.81;39.99;97606.91;6232381;27;126147;-62
2021/05/14 12:36:56;;;;;;;;;14.25;12.25;;;;;24.76;39.69;97605.19;6258515;27;125762;-62
2021/05/14 12:40:01;;;;;;;;;11.75;10.25;;;;;24.69;40.24;97607.69;6240608;27;124900;-62
2021/05/14 12:43:07;;;;;;;;;12.80;11.00;;;;;24.54;40.47;97609.19;6239920;27;125144;-62
2021/05/14 12:46:10;;;;;;;;;11.00;11.00;;;;;24.72;39.68;97603.47;6229942;27;126410;-62
2021/05/14 12:49:13;;;;;;;;;13.60;12.00;;;;;25.03;39.73;97618.28;6238606;27;126673;-62
2021/05/14 12:52:21;;;;;;;;;11.00;10.00;;;;;25.07;39.40;97601.84;6258463;27;127811;-62
2021/05/14 12:55:24;;;;;;;;;13.00;11.00;;;;;25.23;39.32;97610.19;6258310;27;124829;-62
2021/05/14 12:58:27;;;;;;;;;11.00;10.00;;;;;25.34;38.15;97608.56;6238770;27;126409;-62
2021/05/14 13:01:30;;;;;;;;;8.00;8.00;;;;;25.43;37.65;97612.00;6242678;27;126466;-62
2021/05/14 13:04:33;;;;;;;;;14.00;12.00;;;;;25.41;38.30;97601.28;6256423;27;125161;-61
2021/05/14 13:07:36;;;;;;;;;10.00;9.00;;;;;25.61;37.96;97604.28;6258809;27;126284;-62
2021/05/14 13:10:45;;;;;;;;;8.75;8.00;;;;;25.70;37.95;97614.00;6259213;27;124429;-62
2021/05/14 13:13:48;;;;;;;;;9.25;8.25;;;;;26.08;38.45;97605.19;6258855;27;125495;-62
2021/05/14 13:16:50;;;;;;;;;10.80;9.80;;;;;26.27;36.91;97619.16;6233302;27;124960;-62
2021/05/14 13:19:56;;;;;;;;;10.40;9.80;;;;;26.30;36.86;97620.38;6247870;27;126607;-62
2021/05/14 13:22:59;;;;;;;;;10.75;9.75;;;;;26.40;37.00;97633.69;6233106;27;124866;-62
2021/05/14 13:26:03;;;;;;;;;13.00;12.00;;;;;26.28;36.70;97639.31;6260794;27;124878;-62
2021/05/14 13:29:06;;;;;;;;;9.60;9.60;;;;;25.90;37.13;97634.28;6263215;27;125417;-61
2021/05/14 13:32:08;;;;;;;;;9.40;9.40;;;;;25.78;37.22;97639.84;6260896;27;126116;-62
2021/05/14 13:35:12;;;;;;;;;8.80;8.80;;;;;25.68;37.36;97643.91;6228457;27;124833;-61
2021/05/14 13:38:15;;;;;;;;;10.75;10.00;;;;;25.63;38.02;97644.16;6228140;27;125752;-61
2021/05/14 13:41:19;;;;;;;;;8.00;7.20;;;;;25.34;38.71;97644.44;6243540;27;124303;-62
2021/05/14 13:44:21;;;;;;;;;10.60;9.00;;;;;25.44;38.53;97653.03;6261017;27;126555;-61
2021/05/14 13:47:24;;;;;;;;;11.00;10.00;;;;;25.35;38.37;97657.09;6261731;27;124222;-62
2021/05/14 13:50:27;;;;;;;;;9.00;8.00;;;;;25.01;38.95;97653.69;6260980;27;126230;-61
2021/05/14 13:53:30;;;;;;;;;8.60;7.00;;;;;24.79;38.97;97648.59;6257256;27;126956;-62
2021/05/14 13:56:33;;;;;;;;;8.00;8.00;;;;;24.79;38.93;97661.56;6250833;27;125992;-62
2021/05/14 13:59:36;;;;;;;;;7.00;7.00;;;;;24.53;39.21;97662.69;6249779;27;126261;-62